Time;durP1;ratioP1;P1;durP2;ratioP2;P2;SDS_P1;SDS_P2;PMS_P1;PMS_P2;Temp;Humidity;BMP_temperature;BMP_pressure;BME280_temperature;BME280_humidity;BME280_pressure;Samples;Min_cycle;Max_cycle;Signal;HPM_P1;HPM_P2
2024/01/25 00:01:10;;;;;;;18.40;2.70;;;7.60;99.90;;;;;;4998226;28;20022;-81
2024/01/25 00:03:36;;;;;;;11.25;1.73;;;7.60;99.90;;;;;;4999956;28;20074;-83
2024/01/25 00:06:02;;;;;;;23.02;2.97;;;7.50;99.90;;;;;;4997876;28;20018;-82
2024/01/25 00:08:27;;;;;;;19.50;3.35;;;7.50;99.90;;;;;;5000293;28;20475;-80
2024/01/25 00:10:53;;;;;;;24.40;1.70;;;8.10;99.90;;;;;;4998610;28;20026;-81
2024/01/25 00:13:19;;;;;;;17.92;1.17;;;9.30;99.90;;;;;;4997907;28;20363;-82
2024/01/25 00:15:44;;;;;;;18.17;1.95;;;7.40;99.90;;;;;;4997807;28;20026;-81
2024/01/25 00:18:10;;;;;;;22.27;2.20;;;7.40;99.90;;;;;;4997777;28;20457;-81
2024/01/25 00:20:35;;;;;;;15.15;1.92;;;7.40;99.90;;;;;;4999253;28;20041;-80
2024/01/25 00:23:01;;;;;;;21.88;3.05;;;;;;;;;;4998461;28;20025;-83
2024/01/25 00:25:27;;;;;;;11.43;1.33;;;7.40;99.90;;;;;;4999892;28;20042;-80
2024/01/25 00:27:53;;;;;;;21.60;1.75;;;7.40;99.90;;;;;;4999254;28;20018;-81
2024/01/25 00:30:18;;;;;;;22.42;1.67;;;7.40;99.90;;;;;;4998181;28;20030;-81
2024/01/25 00:32:44;;;;;;;17.75;2.00;;;7.20;99.90;;;;;;4997392;28;20081;-82
2024/01/25 00:35:10;;;;;;;15.50;1.73;;;7.10;99.90;;;;;;4998285;28;20592;-82
2024/01/25 00:37:37;;;;;;;15.65;1.35;;;7.00;99.90;;;;;;4998325;28;20019;-81
2024/01/25 00:40:03;;;;;;;21.35;0.80;;;7.00;99.90;;;;;;4998638;28;20109;-81
2024/01/25 00:42:31;;;;;;;17.88;1.85;;;7.00;99.90;;;;;;4998025;28;20022;-82
2024/01/25 00:44:57;;;;;;;21.85;1.67;;;6.90;99.90;;;;;;5000342;28;20474;-80
2024/01/25 00:47:23;;;;;;;24.65;2.30;;;6.70;99.90;;;;;;5000090;28;20027;-80
2024/01/25 00:49:48;;;;;;;19.98;1.00;;;6.70;99.90;;;;;;5001233;28;20018;-80
2024/01/25 00:52:14;;;;;;;21.45;1.60;;;6.70;99.90;;;;;;5002102;28;20509;-80
2024/01/25 00:54:40;;;;;;;19.40;1.38;;;6.80;99.90;;;;;;5000459;28;20150;-80
2024/01/25 00:57:07;;;;;;;21.55;2.60;;;6.70;99.90;;;;;;5000594;28;20033;-83
2024/01/25 00:59:32;;;;;;;26.00;2.33;;;6.70;99.90;;;;;;5000546;28;20068;-82
2024/01/25 01:01:59;;;;;;;18.63;1.55;;;6.70;99.90;;;;;;5000344;28;20394;-82
2024/01/25 01:04:26;;;;;;;16.98;1.90;;;6.70;99.90;;;;;;5002183;28;20050;-79
2024/01/25 01:06:52;;;;;;;21.50;1.85;;;6.70;99.90;;;;;;5001747;28;20080;-80
2024/01/25 01:09:18;;;;;;;26.90;2.72;;;6.70;99.90;;;;;;5001447;28;20085;-81
2024/01/25 01:11:43;;;;;;;24.38;1.83;;;7.00;99.90;;;;;;5001217;28;20023;-82
2024/01/25 01:14:09;;;;;;;24.55;2.05;;;6.50;99.90;;;;;;5001290;28;20030;-80
2024/01/25 01:16:35;;;;;;;23.33;1.92;;;6.50;99.90;;;;;;5001919;28;20113;-81
2024/01/25 01:19:05;;;;;;;20.83;2.88;;;6.90;99.90;;;;;;5000970;28;20459;-81
2024/01/25 01:21:32;;;;;;;24.00;3.22;;;6.50;99.90;;;;;;5000300;28;20030;-78
2024/01/25 01:23:57;;;;;;;13.90;2.15;;;6.40;99.90;;;;;;4995363;28;20418;-77
2024/01/25 01:26:23;;;;;;;15.18;1.77;;;6.30;99.90;;;;;;4997330;28;20026;-77
2024/01/25 01:28:48;;;;;;;24.35;2.60;;;6.30;99.90;;;;;;4995872;28;20509;-77
2024/01/25 01:31:14;;;;;;;14.30;1.40;;;6.20;99.90;;;;;;4997643;28;20435;-77
2024/01/25 01:33:40;;;;;;;30.85;1.85;;;6.10;99.90;;;;;;4998451;28;20034;-77
2024/01/25 01:36:06;;;;;;;27.42;1.85;;;6.10;99.90;;;;;;4997240;28;20546;-78
2024/01/25 01:38:31;;;;;;;23.13;2.22;;;6.00;99.90;;;;;;4997000;28;20513;-77
2024/01/25 01:40:57;;;;;;;26.88;1.52;;;6.00;99.90;;;;;;4997981;28;20101;-77
2024/01/25 01:43:23;;;;;;;27.17;2.33;;;6.00;99.90;;;;;;4998053;28;20029;-77
2024/01/25 01:45:49;;;;;;;21.98;1.75;;;6.00;99.90;;;;;;4998285;28;20109;-78
2024/01/25 01:48:16;;;;;;;31.92;2.65;;;6.00;99.90;;;;;;5000165;28;20026;-77
2024/01/25 01:50:43;;;;;;;17.95;1.80;;;6.70;99.90;;;;;;4996023;28;20121;-77
2024/01/25 01:53:10;;;;;;;25.70;2.33;;;5.90;99.90;;;;;;4997520;28;20085;-78
2024/01/25 01:55:36;;;;;;;18.58;1.42;;;5.80;99.90;;;;;;4994970;28;20058;-78
2024/01/25 01:58:02;;;;;;;28.02;1.40;;;5.80;99.90;;;;;;4994947;28;20073;-77
2024/01/25 02:00:30;;;;;;;14.90;1.40;;;5.80;99.90;;;;;;4996442;28;20030;-78
2024/01/25 02:02:57;;;;;;;25.85;3.03;;;6.00;99.90;;;;;;4995180;28;20034;-77
2024/01/25 02:05:24;;;;;;;28.52;2.88;;;5.60;99.90;;;;;;4997266;28;20501;-79
2024/01/25 02:07:49;;;;;;;16.70;1.33;;;5.70;99.90;;;;;;4994799;28;20549;-78
2024/01/25 02:10:15;;;;;;;19.05;0.98;;;5.60;99.90;;;;;;4996126;28;20521;-79
2024/01/25 02:12:41;;;;;;;22.08;2.40;;;5.60;99.90;;;;;;4997582;28;20023;-78
2024/01/25 02:15:07;;;;;;;16.45;1.98;;;5.60;99.90;;;;;;4997659;28;20030;-79
2024/01/25 02:17:33;;;;;;;34.17;2.63;;;5.60;99.90;;;;;;4996506;28;20113;-79
2024/01/25 02:20:00;;;;;;;26.75;4.55;;;5.60;99.90;;;;;;5004552;28;20026;-78
2024/01/25 02:22:26;;;;;;;23.02;1.58;;;5.60;99.90;;;;;;5007358;28;20031;-78
2024/01/25 02:24:51;;;;;;;21.10;1.60;;;5.50;99.90;;;;;;5005690;28;20094;-79
2024/01/25 02:27:17;;;;;;;22.65;2.78;;;5.50;99.90;;;;;;5007022;28;20030;-79
2024/01/25 02:29:43;;;;;;;22.92;2.58;;;5.40;99.90;;;;;;5005791;28;20054;-79
2024/01/25 02:32:08;;;;;;;30.15;1.83;;;5.40;99.90;;;;;;5006086;28;20062;-79
2024/01/25 02:34:34;;;;;;;21.98;1.73;;;5.60;99.90;;;;;;5000225;28;20023;-79
2024/01/25 02:36:59;;;;;;;22.77;2.20;;;5.30;99.90;;;;;;4994682;28;20030;-79
2024/01/25 02:39:25;;;;;;;30.35;2.72;;;5.30;99.90;;;;;;4996392;28;20093;-78
2024/01/25 02:41:50;;;;;;;21.15;1.80;;;5.20;99.90;;;;;;4994403;28;20041;-79
2024/01/25 02:44:16;;;;;;;21.67;3.20;;;5.20;99.90;;;;;;4997200;28;20029;-78
2024/01/25 02:46:44;;;;;;;18.92;2.25;;;5.10;99.90;;;;;;4996777;28;20030;-79
2024/01/25 02:49:10;;;;;;;20.77;1.48;;;5.00;99.90;;;;;;5006478;28;20014;-79
2024/01/25 02:51:36;;;;;;;24.23;2.75;;;5.00;99.90;;;;;;4999436;28;20026;-79
2024/01/25 02:54:02;;;;;;;27.20;2.97;;;4.90;99.90;;;;;;4995578;28;20117;-79
2024/01/25 02:56:34;;;;;;;23.08;2.65;;;4.90;99.90;;;;;;4997239;28;20030;-79
2024/01/25 02:59:01;;;;;;;24.15;1.90;;;4.90;99.90;;;;;;4996105;28;20057;-78
2024/01/25 03:01:27;;;;;;;17.17;1.55;;;4.80;99.90;;;;;;4996138;28;20534;-77
2024/01/25 03:03:53;;;;;;;22.80;2.03;;;4.80;99.90;;;;;;4996436;28;20046;-77
2024/01/25 03:06:18;;;;;;;25.02;3.17;;;4.80;99.90;;;;;;4994693;28;20027;-78
2024/01/25 03:08:44;;;;;;;25.67;1.85;;;4.80;99.90;;;;;;4994883;28;20374;-78
2024/01/25 03:11:09;;;;;;;22.33;2.90;;;4.80;99.90;;;;;;4995235;28;20092;-78
2024/01/25 03:13:35;;;;;;;26.63;2.58;;;4.80;99.90;;;;;;4995704;28;20108;-78
2024/01/25 03:16:01;;;;;;;17.90;1.65;;;4.80;99.90;;;;;;4994123;28;20027;-78
2024/01/25 03:18:27;;;;;;;31.25;2.10;;;4.70;99.90;;;;;;4995529;28;20023;-78
2024/01/25 03:20:52;;;;;;;31.42;3.33;;;4.70;99.90;;;;;;4994441;28;20023;-78
2024/01/25 03:23:18;;;;;;;20.85;2.17;;;4.70;99.90;;;;;;4994689;28;20030;-78
2024/01/25 03:25:43;;;;;;;19.20;2.08;;;4.60;99.90;;;;;;4994440;28;20129;-78
2024/01/25 03:28:11;;;;;;;28.55;3.33;;;4.50;99.90;;;;;;4996733;28;20356;-78
2024/01/25 03:30:36;;;;;;;19.00;3.17;;;4.60;99.90;;;;;;4994464;28;20073;-77
2024/01/25 03:33:02;;;;;;;17.52;1.95;;;4.50;99.90;;;;;;4996205;28;20085;-78
2024/01/25 03:35:28;;;;;;;22.48;1.75;;;4.50;99.90;;;;;;4995416;28;20053;-78
2024/01/25 03:37:53;;;;;;;29.83;1.95;;;4.50;99.90;;;;;;4994928;28;20019;-78
2024/01/25 03:40:19;;;;;;;26.95;2.03;;;4.40;99.90;;;;;;4994969;28;20081;-77
2024/01/25 03:42:45;;;;;;;28.67;2.45;;;4.40;99.90;;;;;;4995588;28;20065;-78
2024/01/25 03:45:10;;;;;;;22.83;1.45;;;4.40;99.90;;;;;;4997504;28;20089;-79
2024/01/25 03:47:36;;;;;;;25.33;1.90;;;4.30;99.90;;;;;;4997460;28;20475;-77
2024/01/25 03:50:02;;;;;;;20.35;1.67;;;4.30;99.90;;;;;;4996656;28;20033;-78
2024/01/25 03:52:30;;;;;;;22.15;2.17;;;4.20;99.90;;;;;;4994999;28;20019;-78
2024/01/25 03:54:56;;;;;;;19.60;1.60;;;5.20;99.90;;;;;;4994998;28;20022;-79
2024/01/25 03:57:21;;;;;;;28.50;3.50;;;4.20;99.90;;;;;;4996266;28;20026;-77
2024/01/25 03:59:47;;;;;;;28.83;2.20;;;4.10;99.90;;;;;;4996862;28;20430;-77
2024/01/25 04:02:13;;;;;;;17.58;2.28;;;4.10;99.90;;;;;;4998429;28;20393;-78
2024/01/25 04:04:38;;;;;;;17.77;1.85;;;4.00;99.90;;;;;;4996798;28;20011;-78
2024/01/25 04:07:04;;;;;;;25.23;2.40;;;4.00;99.90;;;;;;4997904;28;20097;-78
2024/01/25 04:09:29;;;;;;;29.00;3.70;;;4.00;99.90;;;;;;4996826;28;20029;-78
2024/01/25 04:11:56;;;;;;;14.70;1.65;;;4.00;99.90;;;;;;4996399;28;20023;-78
2024/01/25 04:14:21;;;;;;;13.38;1.73;;;4.00;99.90;;;;;;4996421;28;20105;-78
2024/01/25 04:16:47;;;;;;;22.67;2.10;;;3.90;99.90;;;;;;4995475;28;20108;-78
2024/01/25 04:19:13;;;;;;;29.90;1.98;;;3.90;99.90;;;;;;4995784;28;20028;-78
2024/01/25 04:21:39;;;;;;;16.45;1.42;;;3.90;99.90;;;;;;4999835;28;20057;-79
2024/01/25 04:24:05;;;;;;;23.65;2.42;;;3.90;99.90;;;;;;4999215;28;20478;-78
2024/01/25 04:26:30;;;;;;;24.30;3.15;;;3.80;99.90;;;;;;4999229;28;20458;-78
2024/01/25 04:28:56;;;;;;;17.50;1.90;;;3.80;99.90;;;;;;4998471;28;20020;-78
2024/01/25 04:31:21;;;;;;;19.85;1.88;;;3.80;99.90;;;;;;4998137;28;20038;-78
2024/01/25 04:33:47;;;;;;;19.95;1.55;;;3.80;99.90;;;;;;5000280;28;20049;-78
2024/01/25 04:36:13;;;;;;;19.23;1.42;;;3.80;99.90;;;;;;4999575;28;20046;-78
2024/01/25 04:38:38;;;;;;;13.82;1.30;;;4.00;99.90;;;;;;4999377;28;20030;-78
2024/01/25 04:41:05;;;;;;;18.17;2.78;;;3.80;99.90;;;;;;4998384;28;20025;-78
2024/01/25 04:43:35;;;;;;;21.40;2.70;;;3.80;99.90;;;;;;4999402;28;20496;-78
2024/01/25 04:46:01;;;;;;;22.77;2.20;;;3.70;99.90;;;;;;4997473;28;20042;-77
2024/01/25 04:48:26;;;;;;;20.83;2.30;;;3.70;99.90;;;;;;4999249;28;20026;-78
2024/01/25 04:50:52;;;;;;;20.92;1.80;;;3.60;99.90;;;;;;4997860;28;20072;-77
2024/01/25 04:53:17;;;;;;;27.15;1.35;;;3.60;99.90;;;;;;4997851;28;20033;-77
2024/01/25 04:55:43;;;;;;;20.77;2.38;;;3.50;99.90;;;;;;4997030;28;20073;-77
2024/01/25 04:58:09;;;;;;;15.70;1.33;;;3.50;99.90;;;;;;4996535;28;20052;-77
2024/01/25 05:00:36;;;;;;;22.20;1.83;;;3.50;99.90;;;;;;4996266;28;20092;-77
2024/01/25 05:03:02;;;;;;;24.30;2.13;;;3.50;99.90;;;;;;4998375;28;20018;-77
2024/01/25 05:05:28;;;;;;;19.23;1.00;;;3.40;99.90;;;;;;4998038;28;20077;-78
2024/01/25 05:07:53;;;;;;;25.15;3.17;;;3.40;99.90;;;;;;4998086;28;20027;-77
2024/01/25 05:10:19;;;;;;;18.98;2.00;;;3.50;99.90;;;;;;4996526;28;20544;-77
2024/01/25 05:12:44;;;;;;;27.80;2.03;;;3.40;99.90;;;;;;4997809;28;20035;-77
2024/01/25 05:15:10;;;;;;;24.95;2.78;;;3.50;99.90;;;;;;4998887;28;20022;-77
2024/01/25 05:17:36;;;;;;;19.58;1.63;;;3.40;99.90;;;;;;4998324;28;20030;-77
2024/01/25 05:20:02;;;;;;;23.83;1.90;;;3.50;99.90;;;;;;4998114;28;20034;-77
2024/01/25 05:22:28;;;;;;;26.00;1.38;;;3.50;99.90;;;;;;4998186;28;20387;-77
2024/01/25 05:24:53;;;;;;;17.40;1.80;;;3.50;99.90;;;;;;4997083;28;20023;-77
2024/01/25 05:27:19;;;;;;;21.40;2.55;;;3.40;99.90;;;;;;4998027;28;20077;-77
2024/01/25 05:29:45;;;;;;;23.88;2.15;;;3.40;99.90;;;;;;4998641;28;20087;-77
2024/01/25 05:32:10;;;;;;;27.60;2.97;;;4.60;99.90;;;;;;4997228;28;20078;-77
2024/01/25 05:34:36;;;;;;;31.92;2.83;;;3.40;99.90;;;;;;4997922;28;20030;-77
2024/01/25 05:37:01;;;;;;;25.80;2.72;;;3.40;99.90;;;;;;4996928;28;20027;-77
2024/01/25 05:39:27;;;;;;;25.98;1.77;;;3.50;99.90;;;;;;4997158;28;20047;-77
2024/01/25 05:41:53;;;;;;;28.10;3.03;;;3.60;99.90;;;;;;4998332;28;20039;-77
2024/01/25 05:44:18;;;;;;;26.42;1.52;;;3.60;99.90;;;;;;4996774;28;20081;-77
2024/01/25 05:46:44;;;;;;;22.17;1.65;;;3.70;99.90;;;;;;4997462;28;20387;-78
2024/01/25 05:49:10;;;;;;;25.05;2.20;;;3.70;99.90;;;;;;4998144;28;20057;-77
2024/01/25 05:51:35;;;;;;;27.67;2.08;;;3.70;99.90;;;;;;4999087;28;20038;-77
2024/01/25 05:54:01;;;;;;;25.50;2.22;;;3.80;99.90;;;;;;4996442;28;20442;-77
2024/01/25 05:56:27;;;;;;;26.58;3.25;;;3.80;99.90;;;;;;4997132;28;20371;-77
2024/01/25 05:58:52;;;;;;;24.42;1.40;;;3.70;99.90;;;;;;4998729;28;20029;-77
2024/01/25 06:01:19;;;;;;;22.10;2.15;;;4.30;99.90;;;;;;4998696;28;20026;-76
2024/01/25 06:03:44;;;;;;;28.55;2.08;;;3.60;99.90;;;;;;4997756;28;20021;-77
2024/01/25 06:06:10;;;;;;;23.90;1.90;;;3.60;99.90;;;;;;4997309;28;20034;-78
2024/01/25 06:08:36;;;;;;;27.17;2.92;;;3.70;99.90;;;;;;4995764;28;20025;-78
2024/01/25 06:11:01;;;;;;;19.02;1.73;;;3.70;99.90;;;;;;4999428;28;20030;-78
2024/01/25 06:13:27;;;;;;;16.35;1.90;;;3.70;99.90;;;;;;5000524;28;20050;-79
2024/01/25 06:15:53;;;;;;;22.80;1.77;;;;;;;;;;4999155;28;20540;-79
2024/01/25 06:18:19;;;;;;;15.73;1.48;;;3.60;99.90;;;;;;4999160;28;20106;-78
2024/01/25 06:20:44;;;;;;;22.27;1.73;;;3.60;99.90;;;;;;4999262;28;20056;-78
2024/01/25 06:23:10;;;;;;;21.70;2.58;;;3.50;99.90;;;;;;4998341;28;20026;-78
2024/01/25 06:25:36;;;;;;;30.83;3.78;;;3.60;99.90;;;;;;4997660;28;20128;-79
2024/01/25 06:28:03;;;;;;;30.45;3.05;;;3.60;99.90;;;;;;4998605;28;20025;-78
2024/01/25 06:30:29;;;;;;;29.58;2.72;;;3.70;99.90;;;;;;4998759;28;20054;-78
2024/01/25 06:32:55;;;;;;;22.52;3.42;;;3.70;99.90;;;;;;4998690;28;20022;-78
2024/01/25 06:35:20;;;;;;;27.45;4.38;;;3.70;99.90;;;;;;4999534;28;20050;-79
2024/01/25 06:37:46;;;;;;;39.58;5.15;;;4.10;99.90;;;;;;4998934;28;20018;-78
2024/01/25 06:40:12;;;;;;;27.75;4.53;;;3.70;99.90;;;;;;4998949;28;20030;-78
2024/01/25 06:42:37;;;;;;;23.98;4.30;;;3.70;99.90;;;;;;4998943;28;20497;-78
2024/01/25 06:45:04;;;;;;;21.83;4.57;;;3.70;99.90;;;;;;4999702;28;20113;-78
2024/01/25 06:47:29;;;;;;;24.02;3.45;;;3.60;99.90;;;;;;5000264;28;20094;-78
2024/01/25 06:49:55;;;;;;;25.35;3.72;;;3.70;99.90;;;;;;4998026;28;20049;-78
2024/01/25 06:52:20;;;;;;;27.85;3.90;;;4.40;99.90;;;;;;4997503;28;20110;-78
2024/01/25 06:54:46;;;;;;;31.38;4.30;;;5.60;99.90;;;;;;4997789;28;20027;-78
2024/01/25 06:57:14;;;;;;;29.25;4.32;;;3.70;99.90;;;;;;4997488;28;20096;-78
2024/01/25 06:59:40;;;;;;;;;;;3.80;99.90;;;;;;4998222;28;20058;-77
2024/01/25 07:02:06;;;;;;;30.52;3.65;;;4.00;99.90;;;;;;4998002;28;19960;-77
2024/01/25 07:04:32;;;;;;;25.73;3.88;;;3.90;99.90;;;;;;4999009;28;20057;-77
2024/01/25 07:06:59;;;;;;;27.73;4.43;;;3.90;99.90;;;;;;4998871;28;20030;-78
2024/01/25 07:09:25;;;;;;;38.83;4.53;;;4.00;99.90;;;;;;4997563;28;20018;-77
2024/01/25 07:11:51;;;;;;;19.38;3.17;;;4.00;99.90;;;;;;4999599;28;20076;-77
2024/01/25 07:14:17;;;;;;;26.15;3.20;;;5.00;99.90;;;;;;4996437;28;20030;-77
2024/01/25 07:16:42;;;;;;;36.53;3.95;;;4.00;99.90;;;;;;4997630;28;20030;-77
2024/01/25 07:19:08;;;;;;;24.98;4.28;;;4.10;99.90;;;;;;4997437;28;20046;-77
2024/01/25 07:21:34;;;;;;;31.13;3.45;;;4.00;99.90;;;;;;4997493;28;20073;-77
2024/01/25 07:24:02;;;;;;;24.95;3.13;;;3.90;99.90;;;;;;4997739;28;20129;-77
2024/01/25 07:26:27;;;;;;;31.13;3.85;;;3.90;99.90;;;;;;4997838;28;20458;-77
2024/01/25 07:28:57;;;;;;;25.88;3.28;;;3.90;99.90;;;;;;4996320;28;20018;-77
2024/01/25 07:31:26;;;;;;;24.42;4.18;;;3.90;99.90;;;;;;4996484;28;20023;-77
2024/01/25 07:33:53;;;;;;;23.63;3.50;;;3.80;99.90;;;;;;4996755;28;20030;-77
2024/01/25 07:36:18;;;;;;;26.85;3.83;;;3.90;99.90;;;;;;4995929;28;20026;-78
2024/01/25 07:38:46;;;;;;;26.33;2.60;;;3.90;99.90;;;;;;4998398;28;20030;-77
2024/01/25 07:41:13;;;;;;;20.90;2.80;;;3.90;99.90;;;;;;4996300;28;20029;-77
2024/01/25 07:43:38;;;;;;;14.60;2.30;;;3.90;99.90;;;;;;4996620;28;20082;-77
2024/01/25 07:46:04;;;;;;;23.73;2.78;;;3.90;99.90;;;;;;4996353;28;20030;-78
2024/01/25 07:48:29;;;;;;;22.45;2.03;;;3.90;99.90;;;;;;4996396;28;20018;-77
2024/01/25 07:50:55;;;;;;;15.07;2.42;;;3.90;99.90;;;;;;4994239;28;20031;-77
2024/01/25 07:53:21;;;;;;;34.55;4.22;;;7.10;99.90;;;;;;4995175;28;20038;-77
2024/01/25 07:55:46;;;;;;;19.75;2.10;;;3.90;99.90;;;;;;4999050;28;20073;-77
2024/01/25 07:58:12;;;;;;;22.15;2.25;;;4.00;99.90;;;;;;4999563;28;20061;-78
2024/01/25 08:00:38;;;;;;;20.95;3.70;;;4.00;99.90;;;;;;4999469;28;20026;-77
2024/01/25 08:03:03;;;;;;;28.52;4.80;;;4.00;99.90;;;;;;5001332;28;20030;-77
2024/01/25 08:05:29;;;;;;;19.35;2.28;;;4.10;99.90;;;;;;5001216;28;20015;-77
2024/01/25 08:07:55;;;;;;;24.27;2.50;;;5.70;99.90;;;;;;5000807;28;20028;-77
2024/01/25 08:10:20;;;;;;;24.00;2.63;;;4.10;99.90;;;;;;4999771;28;20023;-80
2024/01/25 08:12:47;;;;;;;25.38;2.70;;;4.20;99.90;;;;;;5005080;28;20050;-80
2024/01/25 08:15:14;;;;;;;24.38;3.17;;;4.20;99.90;;;;;;5003533;28;20030;-81
2024/01/25 08:17:39;;;;;;;27.20;2.42;;;4.20;99.90;;;;;;5000317;28;20041;-79
2024/01/25 08:20:06;;;;;;;20.63;1.83;;;4.30;99.90;;;;;;5000727;28;20023;-79
2024/01/25 08:22:32;;;;;;;24.27;2.42;;;4.30;99.90;;;;;;5000508;28;20398;-78
2024/01/25 08:24:58;;;;;;;21.27;2.33;;;4.30;99.90;;;;;;4999627;28;20022;-78
2024/01/25 08:27:24;;;;;;;20.50;2.08;;;4.40;99.90;;;;;;5000245;28;20027;-78
2024/01/25 08:29:50;;;;;;;24.23;2.65;;;4.40;99.90;;;;;;5000007;28;20026;-78
2024/01/25 08:32:16;;;;;;;18.40;2.67;;;5.50;99.90;;;;;;4999568;28;20039;-78
2024/01/25 08:34:41;;;;;;;27.08;3.22;;;4.50;99.90;;;;;;4999053;28;20026;-78
2024/01/25 08:37:07;;;;;;;18.38;1.75;;;4.60;99.90;;;;;;4999589;28;20034;-78
2024/01/25 08:39:33;;;;;;;21.75;2.72;;;5.60;99.90;;;;;;4998599;28;20030;-78
2024/01/25 08:42:01;;;;;;;31.92;2.97;;;4.70;99.90;;;;;;4998424;28;20038;-79
2024/01/25 08:44:27;;;;;;;22.38;3.28;;;4.70;99.90;;;;;;4998619;28;20037;-78
2024/01/25 08:46:53;;;;;;;29.85;3.05;;;4.80;99.90;;;;;;4999090;28;20022;-77
2024/01/25 08:49:18;;;;;;;20.00;2.75;;;6.50;99.90;;;;;;4997936;28;20471;-77
2024/01/25 08:51:46;;;;;;;24.38;2.58;;;4.90;99.90;;;;;;5000249;28;20410;-78
2024/01/25 08:54:11;;;;;;;27.02;2.72;;;5.00;99.90;;;;;;4999900;28;20189;-77
2024/01/25 08:56:37;;;;;;;24.90;2.58;;;;;;;;;;4998557;28;20065;-78
2024/01/25 08:59:03;;;;;;;22.70;3.08;;;5.20;99.90;;;;;;4998400;28;20481;-78
2024/01/25 09:01:29;;;;;;;25.25;2.90;;;5.40;99.90;;;;;;4997776;28;20018;-77
2024/01/25 09:03:54;;;;;;;18.83;2.25;;;5.40;99.90;;;;;;4997294;28;20038;-78
2024/01/25 09:06:20;;;;;;;16.88;1.90;;;5.50;99.90;;;;;;4996670;28;20069;-78
2024/01/25 09:08:45;;;;;;;21.48;3.33;;;5.60;99.90;;;;;;4997109;28;20045;-77
2024/01/25 09:11:11;;;;;;;23.38;3.53;;;5.60;99.90;;;;;;4997550;28;20110;-77
2024/01/25 09:13:40;;;;;;;36.38;4.13;;;5.70;99.90;;;;;;4996247;28;20030;-77
2024/01/25 09:16:06;;;;;;;34.90;7.18;;;5.80;99.90;;;;;;4998302;28;20029;-78
2024/01/25 09:18:31;;;;;;;25.63;6.05;;;5.80;99.90;;;;;;4997884;28;20030;-77
2024/01/25 09:20:57;;;;;;;30.17;6.82;;;5.90;99.90;;;;;;4996373;28;20030;-76
2024/01/25 09:23:23;;;;;;;25.83;7.28;;;5.90;99.90;;;;;;4995924;28;20427;-77
2024/01/25 09:25:48;;;;;;;31.92;7.45;;;5.90;99.90;;;;;;4997266;28;20029;-76
2024/01/25 09:28:14;;;;;;;29.38;7.32;;;6.00;99.90;;;;;;4996770;28;20027;-76
2024/01/25 09:30:43;;;;;;;34.20;7.00;;;6.00;99.90;;;;;;4996490;28;20031;-76
2024/01/25 09:33:09;;;;;;;24.33;6.85;;;6.10;99.90;;;;;;4998491;28;20458;-77
2024/01/25 09:35:34;;;;;;;27.85;8.45;;;6.10;99.90;;;;;;4996198;28;20014;-77
2024/01/25 09:38:00;;;;;;;40.97;9.90;;;6.20;99.90;;;;;;4997698;28;20025;-77
2024/01/25 09:40:27;;;;;;;36.80;10.65;;;6.20;99.90;;;;;;4997814;28;20026;-77
2024/01/25 09:42:54;;;;;;;37.83;11.05;;;6.20;99.90;;;;;;4997475;28;20363;-77
2024/01/25 09:45:20;;;;;;;27.40;8.50;;;6.30;99.90;;;;;;4997254;28;20077;-77
2024/01/25 09:47:46;;;;;;;30.70;7.50;;;6.20;99.90;;;;;;4995076;28;20026;-77
2024/01/25 09:50:12;;;;;;;31.48;5.38;;;7.30;99.90;;;;;;4996877;28;20027;-77
2024/01/25 09:52:38;;;;;;;28.83;7.00;;;6.40;99.90;;;;;;4997528;28;20525;-76
2024/01/25 09:55:13;;;;;;;29.13;6.00;;;6.40;99.90;;;;;;4997464;28;20019;-78
2024/01/25 09:57:44;;;;;;;30.08;4.78;;;6.50;99.90;;;;;;4999239;28;20117;-77
2024/01/25 10:00:11;;;;;;;28.58;4.90;;;6.50;99.90;;;;;;4997454;28;20490;-77
2024/01/25 10:02:38;;;;;;;26.70;5.82;;;6.70;99.90;;;;;;4995005;28;20018;-77
2024/01/25 10:05:04;;;;;;;24.90;4.45;;;6.80;99.90;;;;;;4994649;28;20019;-77
2024/01/25 10:07:39;;;;;;;21.77;2.88;;;6.90;99.90;;;;;;4996040;28;20497;-78
2024/01/25 10:10:06;;;;;;;22.58;3.45;;;7.50;99.90;;;;;;4995776;28;20022;-77
2024/01/25 10:12:32;;;;;;;24.50;2.90;;;6.90;99.90;;;;;;4994794;28;20061;-76
2024/01/25 10:14:58;;;;;;;27.25;2.88;;;7.00;99.90;;;;;;4996351;28;20038;-77
2024/01/25 10:17:24;;;;;;;18.10;2.38;;;7.00;99.90;;;;;;4995419;28;20030;-77
2024/01/25 10:19:49;;;;;;;26.45;3.22;;;7.90;99.90;;;;;;4996114;28;20390;-77
2024/01/25 10:22:15;;;;;;;22.15;2.30;;;7.10;99.90;;;;;;4996364;28;20034;-77
2024/01/25 10:24:41;;;;;;;28.63;3.22;;;7.10;99.90;;;;;;4995994;28;20030;-77
2024/01/25 10:27:10;;;;;;;22.15;2.45;;;7.20;99.90;;;;;;4994409;28;20065;-77
2024/01/25 10:29:35;;;;;;;22.10;2.38;;;7.30;99.90;;;;;;4978950;28;20030;-78
2024/01/25 10:32:03;;;;;;;25.70;3.28;;;7.30;99.90;;;;;;4996157;28;20097;-77
2024/01/25 10:34:30;;;;;;;18.45;2.75;;;7.30;99.90;;;;;;4995039;28;20030;-77
2024/01/25 10:36:56;;;;;;;18.33;2.25;;;7.30;99.90;;;;;;4978139;28;20022;-77
2024/01/25 10:39:23;;;;;;;21.25;3.33;;;7.40;99.90;;;;;;4996218;28;20030;-77
2024/01/25 10:41:50;;;;;;;21.05;2.63;;;7.90;99.90;;;;;;4996165;28;20047;-77
2024/01/25 10:44:19;;;;;;;24.08;3.53;;;7.50;99.90;;;;;;4995824;28;20053;-77
2024/01/25 10:46:47;;;;;;;34.58;3.72;;;7.50;99.90;;;;;;4994950;28;20034;-77
2024/01/25 10:49:13;;;;;;;21.77;3.05;;;;;;;;;;4995219;28;20042;-77
2024/01/25 10:51:41;;;;;;;25.35;4.95;;;7.60;99.90;;;;;;4994667;28;20192;-77
2024/01/25 10:54:08;;;;;;;29.75;3.15;;;7.60;99.90;;;;;;4995945;28;20052;-77
2024/01/25 10:56:35;;;;;;;20.88;2.90;;;7.70;99.90;;;;;;4994104;28;20110;-77
2024/01/25 10:59:01;;;;;;;32.72;3.72;;;8.60;99.90;;;;;;4994128;28;20034;-77
2024/01/25 11:01:30;;;;;;;23.13;3.08;;;7.70;99.90;;;;;;4995298;28;20037;-77
2024/01/25 11:03:55;;;;;;;24.08;2.45;;;7.70;99.90;;;;;;4995118;28;20024;-77
2024/01/25 11:06:22;;;;;;;30.25;4.25;;;7.80;99.90;;;;;;4995341;28;20018;-78
2024/01/25 11:08:48;;;;;;;22.73;3.28;;;7.80;99.90;;;;;;4994127;28;20466;-78
2024/01/25 11:11:17;;;;;;;24.42;2.40;;;7.80;99.90;;;;;;4993915;28;20054;-78
2024/01/25 11:13:44;;;;;;;29.08;3.97;;;7.90;99.90;;;;;;4994983;28;20050;-77
2024/01/25 11:16:17;;;;;;;23.23;2.30;;;7.90;99.90;;;;;;4993812;28;20026;-77
2024/01/25 11:18:58;;;;;;;24.08;3.28;;;7.90;99.90;;;;;;4993659;28;20022;-77
2024/01/25 11:21:43;;;;;;;23.95;2.65;;;8.00;99.90;;;;;;4993529;28;20113;-77
2024/01/25 11:24:16;;;;;;;21.65;1.98;;;7.90;99.90;;;;;;4994755;28;20077;-77
2024/01/25 11:26:46;;;;;;;31.27;2.88;;;7.90;99.90;;;;;;4993538;28;20027;-77
2024/01/25 11:29:16;;;;;;;26.15;2.80;;;7.90;99.90;;;;;;4992694;28;20046;-77
2024/01/25 11:31:43;;;;;;;29.58;2.97;;;7.90;99.90;;;;;;4993429;28;20142;-77
2024/01/25 11:34:11;;;;;;;26.20;3.47;;;8.00;99.90;;;;;;4993499;28;20029;-77
2024/01/25 11:36:37;;;;;;;20.02;2.70;;;8.00;99.90;;;;;;4993306;28;20022;-78
2024/01/25 11:39:03;;;;;;;31.20;2.78;;;8.20;99.90;;;;;;4993269;28;20072;-77
2024/01/25 11:41:30;;;;;;;22.23;2.88;;;8.10;99.90;;;;;;4994654;28;20030;-77
2024/01/25 11:43:56;;;;;;;20.30;3.13;;;8.20;99.90;;;;;;4995526;28;20021;-78
2024/01/25 11:46:23;;;;;;;26.92;3.42;;;8.20;99.90;;;;;;4998143;28;20022;-78
2024/01/25 11:48:48;;;;;;;21.50;4.05;;;8.30;99.90;;;;;;4997733;28;20023;-78
2024/01/25 11:51:14;;;;;;;28.33;3.33;;;8.30;99.90;;;;;;4999275;28;20033;-79
2024/01/25 11:53:41;;;;;;;34.47;3.42;;;8.30;99.90;;;;;;4999994;28;20026;-79
2024/01/25 11:56:09;;;;;;;26.73;2.88;;;8.30;99.90;;;;;;4999560;28;20081;-78
2024/01/25 11:58:36;;;;;;;;;;;8.40;99.90;;;;;;5000485;28;20026;-79
2024/01/25 12:01:05;;;;;;;20.58;2.67;;;8.40;99.90;;;;;;4998558;28;19910;-78
2024/01/25 12:03:32;;;;;;;26.58;4.32;;;8.40;99.90;;;;;;4998502;28;20031;-78
2024/01/25 12:05:59;;;;;;;32.33;3.67;;;8.40;99.90;;;;;;4997424;28;20030;-78
2024/01/25 12:08:24;;;;;;;20.25;2.20;;;8.50;99.90;;;;;;4997863;28;20113;-78
2024/01/25 12:10:50;;;;;;;25.73;3.65;;;8.60;99.90;;;;;;4997974;28;20022;-79
2024/01/25 12:13:16;;;;;;;20.10;3.03;;;8.70;99.90;;;;;;4997923;28;20101;-79
2024/01/25 12:15:42;;;;;;;18.13;2.80;;;8.70;99.90;;;;;;4997584;28;20056;-79
2024/01/25 12:18:08;;;;;;;31.35;3.35;;;8.80;99.90;;;;;;4999942;28;20026;-78
2024/01/25 12:20:36;;;;;;;21.50;3.38;;;8.80;99.90;;;;;;4998828;28;20018;-78
2024/01/25 12:23:01;;;;;;;23.52;3.67;;;9.00;99.90;;;;;;4997990;28;20030;-79
2024/01/25 12:25:27;;;;;;;25.33;3.75;;;8.80;99.90;;;;;;4998706;28;20034;-79
2024/01/25 12:27:53;;;;;;;23.85;3.53;;;8.80;99.90;;;;;;5000934;28;20374;-79
2024/01/25 12:30:19;;;;;;;22.17;3.45;;;8.80;99.90;;;;;;4998647;28;20025;-79
2024/01/25 12:32:48;;;;;;;17.83;3.05;;;8.90;99.90;;;;;;4998402;28;20038;-78
2024/01/25 12:35:17;;;;;;;28.20;4.35;;;8.90;99.90;;;;;;4994723;28;20027;-78
2024/01/25 12:37:45;;;;;;;31.48;3.95;;;8.90;99.90;;;;;;4993474;28;20367;-77
2024/01/25 12:40:11;;;;;;;24.52;3.72;;;8.90;99.90;;;;;;4996423;28;20034;-78
2024/01/25 12:42:39;;;;;;;21.75;3.75;;;8.90;99.90;;;;;;4997131;28;20438;-77